createdAt,value
2023-04-03T00:01:14.223Z,8.67
2023-04-03T00:03:43.365Z,8.63
2023-04-03T00:06:12.861Z,8.83
2023-04-03T00:08:41.976Z,8.90
2023-04-03T00:11:11.612Z,9.60
2023-04-03T00:13:41.040Z,8.57
2023-04-03T00:16:09.638Z,9.20
2023-04-03T00:18:37.722Z,8.23
2023-04-03T00:21:06.474Z,8.27
2023-04-03T00:23:35.404Z,8.37
2023-04-03T00:26:03.529Z,8.27
2023-04-03T00:28:32.876Z,7.93
2023-04-03T00:31:01.305Z,10.30
2023-04-03T00:33:29.360Z,8.50
2023-04-03T00:35:57.384Z,9.63
2023-04-03T00:38:25.615Z,8.80
2023-04-03T00:40:53.606Z,8.30
2023-04-03T00:43:24.142Z,9.20
2023-04-03T00:45:54.140Z,8.80
2023-04-03T00:48:27.025Z,9.30
2023-04-03T00:50:55.649Z,9.47
2023-04-03T00:53:27.811Z,11.03
2023-04-03T00:55:57.270Z,10.17
2023-04-03T00:58:30.735Z,10.97
2023-04-03T01:01:00.930Z,10.40
2023-04-03T01:03:28.926Z,13.33
2023-04-03T01:05:56.956Z,14.77
2023-04-03T01:08:25.118Z,12.47
2023-04-03T01:10:53.222Z,13.00
2023-04-03T01:13:26.537Z,13.37
2023-04-03T01:15:54.852Z,14.13
2023-04-03T01:18:26.180Z,13.73
2023-04-03T01:21:39.139Z,12.87
2023-04-03T01:24:29.633Z,14.37
2023-04-03T01:26:57.924Z,13.23
2023-04-03T01:29:26.049Z,14.77
2023-04-03T01:31:56.732Z,15.67
2023-04-03T01:34:26.166Z,17.10
2023-04-03T01:36:54.270Z,16.57
2023-04-03T01:39:22.990Z,17.03
2023-04-03T01:41:51.186Z,15.57
2023-04-03T01:44:19.157Z,13.83
2023-04-03T01:46:47.426Z,16.83
2023-04-03T01:49:16.761Z,15.67
2023-04-03T01:51:44.788Z,14.13
2023-04-03T01:54:12.907Z,17.07
2023-04-03T01:56:40.969Z,12.67
2023-04-03T01:59:08.976Z,14.17
2023-04-03T02:01:37.169Z,13.23
2023-04-03T02:04:05.719Z,12.47
2023-04-03T02:06:35.935Z,12.40
2023-04-03T02:09:03.934Z,11.03
2023-04-03T02:11:32.193Z,12.40
2023-04-03T02:14:00.186Z,11.67
2023-04-03T02:16:28.176Z,12.77
2023-04-03T02:18:56.184Z,13.47
2023-04-03T02:21:24.174Z,11.83
2023-04-03T02:23:53.517Z,10.30
2023-04-03T02:26:22.073Z,11.80
2023-04-03T02:28:50.080Z,13.97
2023-04-03T02:31:18.161Z,10.40
2023-04-03T02:33:46.196Z,11.13
2023-04-03T02:36:14.284Z,10.47
2023-04-03T02:38:42.268Z,10.47
2023-04-03T02:41:12.913Z,12.97
2023-04-03T02:43:41.737Z,14.07
2023-04-03T02:46:10.313Z,12.10
2023-04-03T02:48:39.139Z,12.17
2023-04-03T02:51:07.450Z,12.77
2023-04-03T02:53:35.417Z,11.17
2023-04-03T02:56:03.435Z,13.47
2023-04-03T02:58:32.755Z,14.83
2023-04-03T03:01:01.840Z,14.40
2023-04-03T03:03:30.000Z,16.20
2023-04-03T03:06:04.918Z,17.13
2023-04-03T03:08:33.152Z,15.80
2023-04-03T03:11:01.298Z,15.00
2023-04-03T03:13:29.321Z,15.40
2023-04-03T03:15:58.915Z,14.33
2023-04-03T03:18:26.958Z,18.00
2023-04-03T03:20:55.741Z,13.07
2023-04-03T03:23:24.877Z,11.67
2023-04-03T03:25:57.631Z,13.87
2023-04-03T03:28:26.113Z,13.47
2023-04-03T03:30:54.409Z,10.30
2023-04-03T03:33:23.734Z,14.03
2023-04-03T03:35:52.170Z,11.13
2023-04-03T03:38:20.441Z,12.50
2023-04-03T03:40:49.833Z,13.67
2023-04-03T03:43:18.124Z,12.90
2023-04-03T03:45:47.008Z,12.10
2023-04-03T03:48:14.964Z,11.30
2023-04-03T03:50:44.245Z,14.50
2023-04-03T03:53:12.261Z,14.40
2023-04-03T03:55:40.543Z,11.87
2023-04-03T03:58:08.545Z,10.83
2023-04-03T04:00:36.630Z,9.73
2023-04-03T04:03:04.719Z,10.23
2023-04-03T04:05:32.942Z,10.53
2023-04-03T04:08:02.316Z,8.90
2023-04-03T04:10:30.358Z,10.70
2023-04-03T04:12:58.933Z,12.57
2023-04-03T04:15:28.200Z,9.93
2023-04-03T04:17:56.372Z,11.10
2023-04-03T04:20:24.674Z,11.93
2023-04-03T04:22:52.702Z,9.67
2023-04-03T04:25:22.160Z,12.60
2023-04-03T04:27:50.249Z,11.63
2023-04-03T04:30:18.365Z,12.63
2023-04-03T04:32:46.924Z,11.47
2023-04-03T04:35:16.736Z,12.10
2023-04-03T04:37:45.530Z,11.30
2023-04-03T04:40:13.899Z,12.63
2023-04-03T04:42:43.199Z,15.97
2023-04-03T04:45:11.920Z,11.37
2023-04-03T04:47:40.004Z,12.77
2023-04-03T04:50:08.964Z,13.40
2023-04-03T04:52:37.011Z,13.13
2023-04-03T04:55:05.694Z,16.27
2023-04-03T04:57:33.708Z,12.23
2023-04-03T05:00:04.194Z,15.70
2023-04-03T05:02:32.410Z,12.57
2023-04-03T05:05:01.143Z,13.50
2023-04-03T05:07:29.928Z,14.83
2023-04-03T05:09:57.882Z,11.70
2023-04-03T05:12:26.216Z,12.83
2023-04-03T05:14:54.215Z,10.47
2023-04-03T05:17:23.520Z,13.23
2023-04-03T05:19:51.489Z,15.03
2023-04-03T05:22:19.518Z,12.23
2023-04-03T05:24:47.605Z,16.57
2023-04-03T05:27:15.788Z,16.33
2023-04-03T05:29:45.403Z,10.07
2023-04-03T05:32:13.829Z,11.47
2023-04-03T05:34:43.229Z,12.33
2023-04-03T05:37:11.288Z,13.07
2023-04-03T05:39:41.533Z,11.70
2023-04-03T05:42:09.873Z,10.00
2023-04-03T05:44:37.812Z,15.50
2023-04-03T05:47:06.895Z,14.53
2023-04-03T05:49:35.066Z,12.30
2023-04-03T05:52:04.851Z,11.50
2023-04-03T05:54:32.995Z,14.60
2023-04-03T05:57:01.073Z,13.73
2023-04-03T05:59:29.172Z,13.73
2023-04-03T06:01:58.092Z,10.53
2023-04-03T06:04:27.163Z,14.13
2023-04-03T06:06:56.946Z,13.77
2023-04-03T06:09:29.984Z,13.20
2023-04-03T06:11:59.573Z,15.07
2023-04-03T06:14:27.947Z,13.57
2023-04-03T06:16:56.788Z,17.53
2023-04-03T06:19:26.095Z,14.50
2023-04-03T06:21:54.305Z,14.97
2023-04-03T06:24:25.120Z,12.83
2023-04-03T06:26:54.845Z,14.63
2023-04-03T06:29:23.062Z,12.40
2023-04-03T06:31:51.791Z,11.60
2023-04-03T06:34:20.049Z,12.07
2023-04-03T06:36:48.214Z,12.17
2023-04-03T06:39:18.371Z,12.00
2023-04-03T06:41:46.638Z,15.07
2023-04-03T06:44:17.165Z,12.13
2023-04-03T06:46:46.560Z,15.13
2023-04-03T06:49:16.081Z,13.73
2023-04-03T06:51:44.490Z,16.03
2023-04-03T06:54:12.629Z,14.23
2023-04-03T06:56:40.910Z,17.13
2023-04-03T06:59:09.589Z,14.50
2023-04-03T07:01:39.324Z,10.97
2023-04-03T07:04:08.721Z,16.70
2023-04-03T07:06:37.562Z,12.10
2023-04-03T07:09:06.424Z,13.13
2023-04-03T07:11:34.780Z,13.77
2023-04-03T07:14:03.221Z,16.65
2023-04-03T07:16:32.259Z,12.27
2023-04-03T07:19:02.573Z,15.43
2023-04-03T07:21:30.928Z,15.60
2023-04-03T07:23:59.193Z,15.90
2023-04-03T07:26:27.168Z,12.43
2023-04-03T07:28:55.161Z,12.83
2023-04-03T07:31:24.044Z,12.97
2023-04-03T07:33:52.492Z,12.27
2023-04-03T07:36:23.818Z,11.37
2023-04-03T07:38:51.909Z,12.23
2023-04-03T07:41:23.648Z,11.17
2023-04-03T07:43:52.994Z,11.77
2023-04-03T07:46:21.809Z,12.03
2023-04-03T07:48:50.115Z,13.27
2023-04-03T07:51:18.298Z,13.37
2023-04-03T07:53:48.189Z,10.70
2023-04-03T07:56:16.215Z,12.03
2023-04-03T07:58:44.179Z,10.07
2023-04-03T08:01:12.675Z,13.67
2023-04-03T08:03:41.286Z,14.03
2023-04-03T08:06:15.628Z,12.17
2023-04-03T08:08:44.493Z,12.03
2023-04-03T08:11:14.608Z,11.70
2023-04-03T08:13:44.086Z,13.27
2023-04-03T08:16:13.971Z,11.33
2023-04-03T08:18:42.185Z,9.93
2023-04-03T08:21:11.706Z,10.80
2023-04-03T08:23:39.943Z,8.40
2023-04-03T08:26:10.078Z,8.57
2023-04-03T08:28:40.013Z,12.83
2023-04-03T08:31:12.130Z,12.27
2023-04-03T08:33:40.797Z,9.33
2023-04-03T08:36:18.069Z,12.40
2023-04-03T08:38:46.173Z,19.50
2023-04-03T08:41:18.281Z,11.93
2023-04-03T08:44:00.151Z,14.53
2023-04-03T08:46:39.609Z,9.50
2023-04-03T08:49:16.381Z,8.37
2023-04-03T08:51:50.880Z,9.57
2023-04-03T08:54:29.568Z,10.53
2023-04-03T08:56:59.420Z,11.77
2023-04-03T08:59:34.562Z,15.77
2023-04-03T09:02:08.173Z,8.43
2023-04-03T09:04:36.276Z,8.13
2023-04-03T09:07:09.504Z,8.90
2023-04-03T09:09:42.339Z,8.13
2023-04-03T09:12:19.219Z,8.63
2023-04-03T09:14:58.017Z,8.00
2023-04-03T09:17:39.126Z,8.73
2023-04-03T09:20:20.807Z,12.83
2023-04-03T09:22:52.939Z,7.80
2023-04-03T09:25:24.428Z,9.27
2023-04-03T09:27:54.714Z,9.43
2023-04-03T09:30:26.939Z,8.83
2023-04-03T09:32:57.301Z,9.17
2023-04-03T09:35:36.474Z,8.80
2023-04-03T09:38:22.209Z,9.17
2023-04-03T09:40:52.417Z,12.00
2023-04-03T09:43:32.365Z,9.67
2023-04-03T09:46:24.084Z,7.97
2023-04-03T09:49:05.136Z,10.30
2023-04-03T09:51:37.563Z,10.13
2023-04-03T09:54:28.402Z,9.07
2023-04-03T09:56:58.280Z,12.07
2023-04-03T09:59:26.700Z,9.87
2023-04-03T10:02:05.291Z,7.40
2023-04-03T10:04:41.631Z,10.13
2023-04-03T10:07:32.277Z,11.10
2023-04-03T10:10:02.542Z,7.73
2023-04-03T10:12:31.010Z,5.73
2023-04-03T10:15:00.351Z,7.13
2023-04-03T10:17:45.299Z,14.43
2023-04-03T10:20:29.124Z,11.40
2023-04-03T10:23:06.292Z,6.43
2023-04-03T10:25:43.041Z,5.67
2023-04-03T10:28:16.104Z,7.90
2023-04-03T10:30:51.052Z,10.33
2023-04-03T10:33:36.595Z,9.57
2023-04-03T10:36:20.009Z,7.43
2023-04-03T10:38:56.642Z,14.47
2023-04-03T10:41:36.486Z,8.50
2023-04-03T10:44:16.809Z,7.77
2023-04-03T10:46:49.646Z,8.50
2023-04-03T10:49:32.404Z,7.90
2023-04-03T10:52:06.817Z,8.43
2023-04-03T10:54:40.572Z,10.83
2023-04-03T10:57:13.468Z,8.33
2023-04-03T10:59:47.114Z,7.53
2023-04-03T11:02:21.676Z,8.20
2023-04-03T11:04:55.744Z,9.40
2023-04-03T11:07:26.127Z,9.50
2023-04-03T11:09:59.044Z,7.63
2023-04-03T11:12:32.877Z,8.87
2023-04-03T11:15:03.513Z,9.87
2023-04-03T11:17:37.906Z,7.63
2023-04-03T11:20:17.554Z,10.87
2023-04-03T11:22:49.388Z,7.93
2023-04-03T11:25:22.835Z,5.57
2023-04-03T11:27:57.146Z,13.03
2023-04-03T11:30:30.049Z,9.87
2023-04-03T11:33:24.705Z,11.40
2023-04-03T11:35:56.982Z,8.33
2023-04-03T11:38:30.416Z,7.73
2023-04-03T11:41:00.303Z,9.17
2023-04-03T11:43:30.918Z,10.17
2023-04-03T11:46:02.170Z,10.23
2023-04-03T11:48:52.669Z,8.73
2023-04-03T11:51:47.697Z,7.30
2023-04-03T11:54:47.348Z,7.30
2023-04-03T11:58:01.868Z,9.90
2023-04-03T12:00:59.313Z,10.87
2023-04-03T12:04:04.310Z,7.47
2023-04-03T12:07:05.539Z,7.27
2023-04-03T12:09:52.853Z,7.03
2023-04-03T12:12:36.195Z,6.37
2023-04-03T12:15:49.081Z,8.60
2023-04-03T12:18:45.733Z,8.20
2023-04-03T12:21:15.374Z,14.53
2023-04-03T12:24:07.061Z,6.60
2023-04-03T12:26:48.869Z,6.43
2023-04-03T12:29:25.717Z,7.57
2023-04-03T12:32:09.389Z,9.10
2023-04-03T12:34:51.131Z,11.37
2023-04-03T12:37:33.011Z,8.33
2023-04-03T12:40:11.854Z,11.30
2023-04-03T12:43:11.311Z,10.77
2023-04-03T12:45:51.630Z,11.27
2023-04-03T12:48:24.386Z,11.60
2023-04-03T12:50:52.820Z,7.50
2023-04-03T12:53:24.518Z,10.83
2023-04-03T12:55:57.063Z,9.93
2023-04-03T12:58:28.192Z,12.43
2023-04-03T13:01:05.793Z,7.03
2023-04-03T13:03:34.080Z,10.80
2023-04-03T13:06:04.322Z,8.37
2023-04-03T13:08:32.737Z,7.47
2023-04-03T13:11:04.758Z,8.70
2023-04-03T13:13:32.906Z,6.67
2023-04-03T13:16:10.309Z,8.13
2023-04-03T13:18:39.497Z,8.40
2023-04-03T13:21:09.731Z,6.63
2023-04-03T13:23:40.584Z,5.80
2023-04-03T13:26:09.874Z,6.93
2023-04-03T13:28:38.952Z,9.03
2023-04-03T13:31:19.032Z,5.87
2023-04-03T13:33:59.163Z,7.10
2023-04-03T13:36:31.767Z,9.93
2023-04-03T13:39:08.612Z,6.60
2023-04-03T13:41:39.383Z,8.83
2023-04-03T13:44:30.872Z,8.73
2023-04-03T13:47:02.190Z,9.03
2023-04-03T13:49:34.358Z,12.77
2023-04-03T13:52:07.617Z,6.00
2023-04-03T13:54:39.193Z,8.57
2023-04-03T13:57:15.962Z,6.90
2023-04-03T13:59:45.171Z,10.00
2023-04-03T14:02:20.508Z,6.70
2023-04-03T14:05:01.080Z,9.47
2023-04-03T14:07:30.174Z,10.53
2023-04-03T14:09:58.315Z,10.97
2023-04-03T14:12:31.839Z,12.53
2023-04-03T14:15:02.140Z,10.77
2023-04-03T14:17:32.330Z,7.77
2023-04-03T14:20:01.955Z,9.73
2023-04-03T14:22:32.501Z,10.10
2023-04-03T14:25:01.233Z,11.30
2023-04-03T14:27:32.711Z,7.90
2023-04-03T14:30:01.385Z,7.70
2023-04-03T14:32:31.297Z,8.60
2023-04-03T14:34:59.589Z,9.07
2023-04-03T14:37:30.716Z,7.43
2023-04-03T14:40:00.275Z,7.60
2023-04-03T14:42:30.567Z,5.83
2023-04-03T14:44:59.201Z,8.63
2023-04-03T14:47:31.661Z,9.43
2023-04-03T14:50:02.513Z,6.93
2023-04-03T14:52:32.975Z,7.57
2023-04-03T14:55:03.502Z,6.63
2023-04-03T14:57:32.526Z,9.03
2023-04-03T15:00:01.777Z,8.43
2023-04-03T15:02:32.254Z,8.60
2023-04-03T15:05:04.000Z,7.43
2023-04-03T15:07:35.913Z,9.77
2023-04-03T15:10:15.732Z,9.23
2023-04-03T15:12:45.428Z,7.13
2023-04-03T15:15:13.853Z,9.37
2023-04-03T15:17:42.353Z,10.57
2023-04-03T15:20:16.366Z,9.17
2023-04-03T15:22:44.550Z,7.63
2023-04-03T15:25:12.798Z,10.10
2023-04-03T15:27:41.939Z,9.10
2023-04-03T15:30:15.741Z,10.53
2023-04-03T15:32:43.930Z,10.93
2023-04-03T15:35:12.250Z,7.17
2023-04-03T15:37:41.690Z,10.37
2023-04-03T15:40:10.860Z,9.17
2023-04-03T15:42:39.304Z,9.33
2023-04-03T15:45:08.570Z,8.40
2023-04-03T15:47:36.705Z,7.90
2023-04-03T15:50:07.036Z,13.60
2023-04-03T15:52:35.218Z,14.43
2023-04-03T15:55:04.992Z,14.30
2023-04-03T16:00:06.964Z,8.73
2023-04-03T16:02:35.828Z,11.07
2023-04-03T16:05:04.314Z,14.13
2023-04-03T16:07:32.408Z,15.40
2023-04-03T16:10:00.676Z,15.17
2023-04-03T16:12:30.157Z,14.20
2023-04-03T16:14:58.142Z,8.20
2023-04-03T16:17:26.268Z,6.70
2023-04-03T16:19:54.695Z,7.97
2023-04-03T16:22:23.378Z,8.33
2023-04-03T16:24:51.690Z,6.93
2023-04-03T16:27:19.752Z,6.47
2023-04-03T16:29:49.125Z,9.90
2023-04-03T16:32:17.403Z,8.27
2023-04-03T16:34:45.460Z,9.60
2023-04-03T16:37:13.575Z,7.03
2023-04-03T16:39:41.545Z,6.97
2023-04-03T16:42:10.788Z,8.87
2023-04-03T16:44:40.678Z,9.07
2023-04-03T16:47:10.636Z,8.60
2023-04-03T16:49:39.729Z,16.50
2023-04-03T16:52:08.170Z,8.53
2023-04-03T16:54:36.349Z,9.77
2023-04-03T16:57:04.468Z,10.03
2023-04-03T16:59:32.477Z,10.30
2023-04-03T17:02:00.714Z,8.13
2023-04-03T17:04:30.154Z,13.33
2023-04-03T17:06:58.357Z,10.83
2023-04-03T17:09:26.425Z,8.27
2023-04-03T17:11:54.537Z,8.47
2023-04-03T17:14:22.547Z,8.20
2023-04-03T17:16:50.557Z,8.67
2023-04-03T17:19:18.907Z,9.93
2023-04-03T17:21:48.303Z,12.43
2023-04-03T17:24:16.909Z,15.67
2023-04-03T17:26:45.479Z,9.17
2023-04-03T17:29:13.723Z,10.27
2023-04-03T17:31:41.776Z,14.60
2023-04-03T17:34:12.033Z,10.97
2023-04-03T17:36:41.337Z,9.97
2023-04-03T17:39:11.380Z,9.77
2023-04-03T17:41:39.826Z,12.00
2023-04-03T17:44:08.245Z,14.37
2023-04-03T17:46:36.247Z,7.83
2023-04-03T17:49:04.738Z,11.20
2023-04-03T17:51:34.551Z,13.33
2023-04-03T17:54:02.949Z,13.03
2023-04-03T17:56:32.347Z,10.97
2023-04-03T17:59:00.424Z,15.00
2023-04-03T18:01:30.915Z,11.50
2023-04-03T18:04:01.655Z,11.17
2023-04-03T18:06:33.790Z,11.67
2023-04-03T18:09:06.557Z,14.50
2023-04-03T18:11:36.460Z,15.80
2023-04-03T18:14:07.611Z,16.93
2023-04-03T18:16:36.360Z,15.17
2023-04-03T18:19:20.654Z,15.30
2023-04-03T18:21:50.019Z,14.00
2023-04-03T18:24:20.975Z,14.33
2023-04-03T18:26:54.776Z,23.23
2023-04-03T18:29:23.033Z,18.27
2023-04-03T18:31:55.097Z,16.50
2023-04-03T18:34:23.189Z,19.77
2023-04-03T18:36:52.426Z,22.93
2023-04-03T18:39:20.838Z,18.90
2023-04-03T18:41:51.322Z,13.10
2023-04-03T18:44:21.213Z,13.67
2023-04-03T18:46:49.354Z,11.33
2023-04-03T18:49:18.247Z,12.80
2023-04-03T18:51:46.457Z,14.47
2023-04-03T18:54:14.449Z,18.10
2023-04-03T18:56:42.425Z,12.77
2023-04-03T18:59:11.824Z,16.67
2023-04-03T19:01:39.883Z,15.73
2023-04-03T19:04:08.351Z,16.27
2023-04-03T19:06:38.025Z,16.50
2023-04-03T19:09:07.777Z,20.27
2023-04-03T19:11:36.547Z,15.37
2023-04-03T19:14:16.185Z,20.50
2023-04-03T19:16:46.807Z,17.13
2023-04-03T19:19:14.861Z,20.70
2023-04-03T19:21:42.893Z,15.70
2023-04-03T19:24:11.649Z,14.00
2023-04-03T19:26:39.718Z,17.07
2023-04-03T19:29:08.237Z,18.73
2023-04-03T19:31:37.483Z,17.17
2023-04-03T19:34:08.516Z,17.23
2023-04-03T19:36:37.533Z,22.13
2023-04-03T19:39:06.240Z,20.23
2023-04-03T19:41:36.708Z,19.10
2023-04-03T19:44:06.607Z,19.03
2023-04-03T19:46:35.625Z,19.67
2023-04-03T19:49:03.953Z,16.13
2023-04-03T19:51:33.308Z,23.77
2023-04-03T19:54:01.412Z,20.53
2023-04-03T19:56:29.454Z,17.37
2023-04-03T19:58:57.460Z,18.03
2023-04-03T20:01:26.992Z,13.00
2023-04-03T20:03:55.420Z,20.17
2023-04-03T20:06:23.502Z,16.37
2023-04-03T20:08:53.670Z,17.10
2023-04-03T20:11:22.834Z,16.77
2023-04-03T20:13:51.708Z,14.93
2023-04-03T20:16:22.420Z,13.73
2023-04-03T20:18:52.465Z,15.10
2023-04-03T20:21:20.576Z,15.43
2023-04-03T20:23:48.574Z,16.30
2023-04-03T20:26:24.529Z,15.27
2023-04-03T20:28:53.292Z,15.30
2023-04-03T20:31:21.823Z,19.13
2023-04-03T20:33:50.059Z,17.20
2023-04-03T20:36:19.885Z,16.50
2023-04-03T20:38:48.973Z,16.30
2023-04-03T20:41:18.006Z,17.30
2023-04-03T20:43:47.862Z,17.13
2023-04-03T20:46:19.519Z,14.90
2023-04-03T20:48:48.185Z,18.53
2023-04-03T20:51:18.357Z,14.40
2023-04-03T20:53:46.689Z,16.13
2023-04-03T20:56:15.612Z,23.10
2023-04-03T20:58:46.194Z,22.63
2023-04-03T21:01:18.485Z,20.17
2023-04-03T21:03:47.158Z,17.80
2023-04-03T21:06:52.739Z,21.07
2023-04-03T21:09:58.015Z,21.23
2023-04-03T21:13:04.198Z,17.17
2023-04-03T21:15:52.219Z,19.77
2023-04-03T21:18:42.240Z,19.93
2023-04-03T21:21:19.544Z,17.47
2023-04-03T21:23:48.826Z,14.50
2023-04-03T21:26:17.431Z,16.67
2023-04-03T21:28:45.730Z,15.70
2023-04-03T21:31:15.075Z,14.03
2023-04-03T21:33:45.171Z,14.93
2023-04-03T21:36:13.317Z,16.00
2023-04-03T21:38:41.387Z,17.23
2023-04-03T21:41:09.385Z,16.00
2023-04-03T21:43:37.338Z,15.77
2023-04-03T21:46:06.369Z,17.93
2023-04-03T21:48:36.124Z,14.57
2023-04-03T21:51:06.814Z,14.17
2023-04-03T21:53:36.085Z,14.13
2023-04-03T21:56:04.061Z,17.53
2023-04-03T21:58:32.747Z,17.53
2023-04-03T22:01:10.496Z,15.50
2023-04-03T22:03:38.613Z,16.97
2023-04-03T22:06:08.656Z,14.90
2023-04-03T22:08:37.343Z,18.70
2023-04-03T22:11:06.672Z,19.83
2023-04-03T22:13:35.451Z,17.07
2023-04-03T22:16:03.539Z,17.57
2023-04-03T22:18:31.709Z,16.73
2023-04-03T22:20:59.753Z,14.47
2023-04-03T22:23:29.092Z,19.83
2023-04-03T22:26:01.280Z,14.47
2023-04-03T22:28:29.664Z,15.40
2023-04-03T22:30:57.688Z,18.60
2023-04-03T22:33:25.634Z,14.97
2023-04-03T22:35:54.121Z,14.83
2023-04-03T22:38:24.266Z,15.70
2023-04-03T22:40:59.751Z,15.83
2023-04-03T22:43:28.368Z,17.10
2023-04-03T22:45:57.234Z,17.57
2023-04-03T22:48:25.726Z,17.03
2023-04-03T22:50:53.754Z,15.10
2023-04-03T22:53:21.806Z,16.13
2023-04-03T22:55:56.083Z,23.00
2023-04-03T22:58:26.909Z,18.00
2023-04-03T23:00:55.483Z,18.60
2023-04-03T23:03:24.300Z,16.87
2023-04-03T23:05:52.656Z,16.17
2023-04-03T23:08:21.044Z,15.93
2023-04-03T23:10:49.061Z,17.23
2023-04-03T23:13:17.025Z,16.73
2023-04-03T23:15:46.356Z,18.47
2023-04-03T23:18:14.306Z,14.17
2023-04-03T23:20:42.378Z,18.83
2023-04-03T23:23:10.681Z,18.63
2023-04-03T23:25:38.674Z,18.80
2023-04-03T23:28:06.725Z,15.67
2023-04-03T23:30:34.672Z,17.07
2023-04-03T23:33:04.091Z,19.73
2023-04-03T23:35:32.136Z,14.57
2023-04-03T23:38:00.266Z,14.90
2023-04-03T23:40:28.997Z,14.50
2023-04-03T23:42:57.137Z,14.70
2023-04-03T23:45:25.152Z,16.53
2023-04-03T23:47:53.164Z,13.30
2023-04-03T23:50:22.646Z,16.83
2023-04-03T23:52:50.577Z,15.57
2023-04-03T23:55:18.916Z,14.77
2023-04-03T23:57:47.026Z,16.57
